Dorchester, Texas
Current Conditions -  °F | °C
As of 12:55 AM on Tuesday 21 Oct 2014 (Local Time) from KGYI Reporting Station
Clear Clear  
Wind Chill: 64°   Ceiling: Unl
Heat Index: 64°   Visibility: 10mi
Dew Point: 61°   Wind: 6mph
Humidity: 90%   Direction: 200°SSW
Pressure: 30.06"   Gusts: NA
Location:  33.5446°N, 96.6964°W
Report Text: KGYI 210555Z AUTO 20005KT 10SM CLR 18/16 A3006 RMK AO2 T01790162 10241 20179 402730122
Loading
Personal Weather Stations






























Interactive Weather Map
Tropical Storm Tracking
New forecast layout! Learn more

10-Day Weather Forecast

Advertisements
Track Severe Weather on mobile